createdAt,value
2023-01-19T00:00:48.586Z,83.83
2023-01-19T00:03:20.006Z,83.63
2023-01-19T00:05:51.641Z,83.52
2023-01-19T00:08:23.113Z,83.62
2023-01-19T00:10:54.662Z,83.86
2023-01-19T00:13:26.339Z,84.19
2023-01-19T00:15:58.836Z,84.30
2023-01-19T00:18:30.865Z,84.12
2023-01-19T00:21:02.227Z,84.11
2023-01-19T00:23:33.714Z,83.85
2023-01-19T00:26:05.276Z,83.35
2023-01-19T00:28:36.841Z,83.62
2023-01-19T00:31:08.518Z,83.66
2023-01-19T00:33:39.911Z,83.54
2023-01-19T00:36:13.176Z,83.80
2023-01-19T00:38:44.914Z,83.89
2023-01-19T00:41:16.282Z,83.56
2023-01-19T00:43:47.903Z,83.81
2023-01-19T00:46:19.338Z,83.93
2023-01-19T00:48:50.886Z,83.84
2023-01-19T00:51:22.495Z,83.49
2023-01-19T00:53:55.329Z,83.09
2023-01-19T00:56:27.408Z,82.96
2023-01-19T00:58:58.750Z,83.30
2023-01-19T01:01:45.859Z,82.64
2023-01-19T01:04:18.050Z,82.97
2023-01-19T01:06:49.472Z,83.35
2023-01-19T01:09:21.140Z,83.33
2023-01-19T01:11:52.983Z,83.46
2023-01-19T01:14:25.273Z,83.44
2023-01-19T01:16:57.842Z,83.76
2023-01-19T01:19:29.570Z,83.99
2023-01-19T01:22:01.077Z,84.41
2023-01-19T01:24:32.510Z,83.99
2023-01-19T01:27:04.070Z,84.05
2023-01-19T01:29:36.015Z,84.11
2023-01-19T01:32:07.578Z,83.91
2023-01-19T01:34:40.831Z,83.72
2023-01-19T01:37:12.360Z,83.63
2023-01-19T01:39:43.797Z,83.50
2023-01-19T01:42:21.402Z,83.59
2023-01-19T01:44:56.608Z,83.44
2023-01-19T01:47:33.745Z,83.50
2023-01-19T01:50:10.638Z,83.59
2023-01-19T01:53:07.232Z,83.82
2023-01-19T01:55:43.412Z,83.42
2023-01-19T01:58:18.536Z,83.38
2023-01-19T02:01:07.355Z,83.67
2023-01-19T02:03:39.372Z,83.88
2023-01-19T02:06:12.268Z,83.88
2023-01-19T02:09:07.083Z,83.89
2023-01-19T02:11:56.376Z,83.87
2023-01-19T02:14:28.005Z,83.39
2023-01-19T02:16:59.779Z,83.27
2023-01-19T02:19:37.784Z,83.20
2023-01-19T02:22:14.417Z,83.61
2023-01-19T02:24:46.623Z,83.52
2023-01-19T02:27:18.531Z,83.74
2023-01-19T02:29:49.960Z,83.54
2023-01-19T02:32:21.547Z,83.12
2023-01-19T02:34:53.636Z,83.24
2023-01-19T02:37:26.090Z,83.19
2023-01-19T02:40:02.453Z,83.34
2023-01-19T02:42:38.970Z,83.47
2023-01-19T02:45:12.970Z,83.22
2023-01-19T02:47:48.397Z,83.32
2023-01-19T02:50:53.703Z,83.49
2023-01-19T02:53:46.191Z,83.17
2023-01-19T02:56:49.879Z,83.18
2023-01-19T02:59:44.462Z,83.24
2023-01-19T03:02:27.684Z,83.02
2023-01-19T03:05:10.219Z,82.37
2023-01-19T03:07:52.463Z,82.69
2023-01-19T03:10:33.882Z,82.59
2023-01-19T03:13:12.661Z,82.40
2023-01-19T03:15:50.217Z,82.42
2023-01-19T03:18:27.327Z,82.95
2023-01-19T03:21:01.386Z,83.24
2023-01-19T03:23:36.767Z,83.15
2023-01-19T03:26:12.895Z,82.52
2023-01-19T03:28:47.724Z,82.52
2023-01-19T03:31:18.771Z,82.70
2023-01-19T03:33:54.350Z,83.16
2023-01-19T03:36:31.553Z,83.15
2023-01-19T03:39:06.754Z,83.29
2023-01-19T03:41:41.110Z,83.55
2023-01-19T03:44:13.005Z,83.52
2023-01-19T03:46:46.001Z,83.37
2023-01-19T03:49:18.009Z,83.16
2023-01-19T03:51:49.518Z,83.02
2023-01-19T03:54:20.932Z,82.86
2023-01-19T03:56:52.794Z,82.98
2023-01-19T03:59:24.478Z,83.29
2023-01-19T04:01:56.238Z,83.91
2023-01-19T04:04:27.688Z,83.78
2023-01-19T04:06:59.237Z,83.93
2023-01-19T04:09:30.778Z,83.94
2023-01-19T04:12:04.272Z,83.89
2023-01-19T04:14:35.955Z,83.95
2023-01-19T04:17:07.316Z,83.55
2023-01-19T04:19:38.996Z,83.18
2023-01-19T04:22:11.073Z,83.15
2023-01-19T04:24:42.438Z,83.50
2023-01-19T04:27:15.348Z,83.46
2023-01-19T04:29:46.836Z,83.34
2023-01-19T04:32:18.505Z,83.15
2023-01-19T04:35:27.712Z,82.99
2023-01-19T04:38:01.058Z,82.86
2023-01-19T04:40:32.469Z,82.46
2023-01-19T04:43:04.127Z,82.81
2023-01-19T04:45:36.853Z,82.79
2023-01-19T04:48:08.928Z,83.04
2023-01-19T04:50:42.433Z,82.94
2023-01-19T04:53:16.544Z,83.20
2023-01-19T04:55:48.345Z,83.39
2023-01-19T04:58:19.735Z,83.46
2023-01-19T05:00:52.423Z,83.64
2023-01-19T05:03:25.707Z,83.49
2023-01-19T05:05:59.927Z,82.93
2023-01-19T05:08:31.411Z,82.33
2023-01-19T05:11:02.922Z,82.29
2023-01-19T05:13:35.120Z,82.83
2023-01-19T05:16:07.488Z,82.73
2023-01-19T05:18:39.134Z,82.86
2023-01-19T05:21:11.000Z,82.84
2023-01-19T05:23:42.567Z,82.81
2023-01-19T05:26:14.424Z,82.68
2023-01-19T05:28:45.910Z,82.86
2023-01-19T05:31:18.791Z,82.47
2023-01-19T05:33:51.069Z,82.63
2023-01-19T05:36:22.531Z,82.99
2023-01-19T05:38:53.891Z,83.36
2023-01-19T05:41:25.430Z,83.12
2023-01-19T05:43:56.903Z,82.97
2023-01-19T05:46:28.453Z,83.21
2023-01-19T05:49:01.917Z,82.93
2023-01-19T05:51:38.122Z,82.79
2023-01-19T05:54:10.306Z,83.00
2023-01-19T05:56:41.690Z,82.78
2023-01-19T05:59:13.898Z,82.71
2023-01-19T06:01:45.620Z,82.96
2023-01-19T06:04:17.025Z,83.26
2023-01-19T06:06:50.492Z,83.07
2023-01-19T06:09:21.936Z,83.00
2023-01-19T06:11:54.518Z,82.59
2023-01-19T06:14:26.083Z,82.51
2023-01-19T06:16:57.485Z,82.47
2023-01-19T06:19:29.421Z,82.70
2023-01-19T06:22:01.009Z,82.68
2023-01-19T06:24:33.175Z,82.78
2023-01-19T06:27:04.697Z,83.18
2023-01-19T06:29:36.421Z,83.39
2023-01-19T06:32:08.431Z,83.26
2023-01-19T06:34:44.063Z,83.33
2023-01-19T06:37:16.440Z,83.06
2023-01-19T06:39:47.744Z,82.99
2023-01-19T06:42:19.167Z,82.33
2023-01-19T06:44:50.787Z,82.23
2023-01-19T06:47:22.267Z,82.40
2023-01-19T06:49:53.676Z,82.69
2023-01-19T06:52:25.110Z,82.67
2023-01-19T06:54:56.638Z,82.78
2023-01-19T06:57:28.222Z,82.95
2023-01-19T07:00:01.825Z,82.99
2023-01-19T07:02:33.305Z,83.31
2023-01-19T07:05:07.123Z,82.88
2023-01-19T07:07:39.974Z,82.64
2023-01-19T07:10:13.331Z,82.50
2023-01-19T07:12:46.814Z,82.60
2023-01-19T07:15:19.862Z,82.68
2023-01-19T07:17:51.758Z,82.45
2023-01-19T07:20:23.477Z,82.56
2023-01-19T07:22:59.181Z,82.37
2023-01-19T07:25:30.785Z,82.15
2023-01-19T07:28:03.115Z,82.45
2023-01-19T07:30:34.872Z,82.53
2023-01-19T07:33:06.410Z,82.58
2023-01-19T07:35:37.947Z,82.97
2023-01-19T07:38:09.425Z,82.85
2023-01-19T07:40:40.777Z,82.84
2023-01-19T07:43:12.234Z,82.60
2023-01-19T07:45:45.280Z,82.88
2023-01-19T07:48:16.831Z,83.01
2023-01-19T07:50:48.688Z,83.01
2023-01-19T07:53:20.302Z,83.14
2023-01-19T07:55:57.977Z,83.22
2023-01-19T07:58:29.606Z,83.07
2023-01-19T08:01:02.480Z,83.05
2023-01-19T08:03:33.893Z,82.51
2023-01-19T08:06:06.398Z,82.48
2023-01-19T08:08:38.102Z,82.05
2023-01-19T08:11:10.138Z,82.13
2023-01-19T08:13:41.716Z,82.41
2023-01-19T08:16:13.414Z,82.75
2023-01-19T08:18:45.126Z,83.02
2023-01-19T08:21:17.086Z,82.51
2023-01-19T08:23:55.680Z,82.25
2023-01-19T08:26:30.786Z,82.20
2023-01-19T08:29:03.904Z,82.23
2023-01-19T08:31:38.241Z,82.33
2023-01-19T08:34:10.182Z,82.26
2023-01-19T08:36:41.799Z,82.19
2023-01-19T08:39:14.442Z,82.03
2023-01-19T08:41:45.892Z,82.27
2023-01-19T08:44:17.505Z,82.55
2023-01-19T08:46:49.112Z,82.36
2023-01-19T08:49:20.934Z,82.34
2023-01-19T08:51:52.392Z,82.16
2023-01-19T08:54:24.481Z,81.83
2023-01-19T08:56:57.126Z,81.50
2023-01-19T08:59:28.662Z,82.12
2023-01-19T09:02:00.214Z,82.13
2023-01-19T09:04:33.244Z,81.16
2023-01-19T09:09:40.554Z,81.59
2023-01-19T09:12:12.151Z,82.06
2023-01-19T09:14:43.835Z,82.36
2023-01-19T09:17:18.319Z,82.67
2023-01-19T09:19:49.886Z,82.60
2023-01-19T09:22:21.349Z,82.20
2023-01-19T09:24:53.713Z,82.20
2023-01-19T09:27:25.203Z,82.48
2023-01-19T09:29:56.587Z,82.21
2023-01-19T09:32:29.709Z,81.83
2023-01-19T09:35:01.274Z,81.86
2023-01-19T09:37:32.892Z,81.74
2023-01-19T09:40:05.110Z,82.07
2023-01-19T09:42:44.995Z,82.11
2023-01-19T09:45:21.246Z,82.06
2023-01-19T09:47:53.905Z,81.97
2023-01-19T09:50:30.351Z,81.91
2023-01-19T09:53:11.710Z,82.36
2023-01-19T09:55:44.147Z,82.20
2023-01-19T09:58:19.528Z,81.82
2023-01-19T10:00:58.707Z,82.09
2023-01-19T10:03:30.777Z,82.08
2023-01-19T10:06:06.417Z,82.08
2023-01-19T10:08:43.129Z,82.16
2023-01-19T10:11:31.853Z,82.27
2023-01-19T10:14:14.953Z,81.89
2023-01-19T10:16:55.305Z,81.80
2023-01-19T10:19:38.128Z,81.58
2023-01-19T10:22:27.475Z,81.29
2023-01-19T10:25:01.745Z,81.42
2023-01-19T10:27:37.904Z,81.49
2023-01-19T10:30:16.898Z,81.64
2023-01-19T10:32:48.398Z,81.80
2023-01-19T10:35:24.849Z,81.79
2023-01-19T10:38:00.298Z,81.89
2023-01-19T10:40:36.714Z,81.69
2023-01-19T10:43:39.204Z,81.81
2023-01-19T10:46:18.714Z,81.59
2023-01-19T10:48:52.107Z,81.78
2023-01-19T10:51:24.141Z,82.23
2023-01-19T10:54:13.462Z,82.25
2023-01-19T10:56:45.097Z,82.13
2023-01-19T10:59:34.578Z,81.75
2023-01-19T11:02:19.834Z,81.66
2023-01-19T11:04:53.373Z,81.72
2023-01-19T11:07:30.892Z,81.52
2023-01-19T11:10:26.173Z,81.87
2023-01-19T11:13:07.808Z,81.86
2023-01-19T11:15:46.300Z,81.74
2023-01-19T11:18:32.307Z,81.75
2023-01-19T11:21:06.776Z,81.63
2023-01-19T11:23:43.309Z,81.78
2023-01-19T11:26:26.189Z,81.88
2023-01-19T11:28:59.240Z,81.99
2023-01-19T11:31:38.583Z,81.63
2023-01-19T11:34:28.236Z,81.26
2023-01-19T11:37:04.829Z,81.18
2023-01-19T11:39:49.540Z,81.21
2023-01-19T11:42:23.019Z,81.33
2023-01-19T11:45:04.730Z,80.93
2023-01-19T11:47:43.169Z,80.82
2023-01-19T11:50:25.727Z,80.94
2023-01-19T11:53:02.983Z,81.05
2023-01-19T11:55:41.490Z,80.98
2023-01-19T11:58:18.705Z,80.99
2023-01-19T12:00:55.627Z,80.85
2023-01-19T12:03:31.851Z,80.60
2023-01-19T12:06:07.592Z,80.37
2023-01-19T12:08:43.534Z,80.44
2023-01-19T12:11:19.915Z,80.81
2023-01-19T12:13:54.217Z,80.69
2023-01-19T12:16:28.504Z,81.00
2023-01-19T12:19:05.285Z,81.23
2023-01-19T12:21:37.210Z,80.83
2023-01-19T12:24:17.589Z,80.67
2023-01-19T12:26:54.582Z,80.88
2023-01-19T12:29:30.326Z,80.70
2023-01-19T12:32:33.701Z,80.85
2023-01-19T12:35:05.243Z,81.22
2023-01-19T12:37:41.199Z,80.99
2023-01-19T12:40:35.742Z,80.97
2023-01-19T12:43:09.283Z,80.79
2023-01-19T12:45:41.235Z,80.20
2023-01-19T12:48:28.481Z,80.49
2023-01-19T12:50:59.895Z,81.19
2023-01-19T12:53:32.156Z,80.95
2023-01-19T12:56:10.341Z,80.71
2023-01-19T12:58:49.351Z,80.68
2023-01-19T13:01:25.168Z,80.44
2023-01-19T13:04:06.922Z,80.61
2023-01-19T13:07:14.016Z,81.01
2023-01-19T13:09:45.385Z,81.05
2023-01-19T13:12:27.838Z,81.10
2023-01-19T13:15:35.622Z,81.01
2023-01-19T13:18:09.893Z,80.82
2023-01-19T13:20:49.628Z,80.48
2023-01-19T13:23:29.400Z,80.30
2023-01-19T13:26:07.064Z,80.72
2023-01-19T13:28:46.837Z,80.83
2023-01-19T13:31:19.381Z,80.84
2023-01-19T13:33:54.433Z,81.31
2023-01-19T13:36:33.257Z,81.41
2023-01-19T13:39:07.997Z,81.12
2023-01-19T13:41:40.513Z,80.54
2023-01-19T13:44:19.747Z,80.40
2023-01-19T13:46:51.894Z,80.46
2023-01-19T13:49:28.655Z,80.59
2023-01-19T13:52:14.043Z,80.79
2023-01-19T13:54:56.318Z,81.00
2023-01-19T13:57:33.035Z,81.08
2023-01-19T14:00:21.302Z,81.15
2023-01-19T14:02:59.148Z,80.59
2023-01-19T14:05:32.993Z,80.27
2023-01-19T14:08:13.693Z,80.42
2023-01-19T14:10:47.421Z,80.15
2023-01-19T14:13:21.851Z,80.13
2023-01-19T14:15:58.035Z,80.21
2023-01-19T14:18:31.999Z,80.16
2023-01-19T14:21:06.454Z,79.80
2023-01-19T14:23:49.908Z,79.53
2023-01-19T14:26:49.333Z,79.64
2023-01-19T14:29:25.886Z,79.97
2023-01-19T14:32:13.051Z,79.92
2023-01-19T14:34:46.257Z,79.91
2023-01-19T14:37:24.609Z,80.20
2023-01-19T14:40:00.674Z,80.29
2023-01-19T14:42:34.988Z,80.16
2023-01-19T14:45:15.606Z,80.40
2023-01-19T14:47:54.578Z,79.99
2023-01-19T14:50:28.872Z,80.08
2023-01-19T14:53:04.807Z,80.25
2023-01-19T14:55:44.774Z,79.78
2023-01-19T14:58:17.620Z,79.38
2023-01-19T15:00:50.039Z,79.65
2023-01-19T15:03:24.970Z,79.86
2023-01-19T15:06:00.462Z,79.80
2023-01-19T15:08:34.733Z,80.08
2023-01-19T15:11:11.859Z,80.22
2023-01-19T15:13:45.297Z,80.56
2023-01-19T15:16:28.105Z,80.97
2023-01-19T15:19:04.948Z,80.76
2023-01-19T15:21:49.760Z,80.62
2023-01-19T15:24:32.149Z,80.40
2023-01-19T15:27:06.148Z,80.17
2023-01-19T15:29:42.265Z,79.99
2023-01-19T15:32:20.165Z,80.29
2023-01-19T15:34:54.490Z,80.28
2023-01-19T15:37:36.281Z,80.17
2023-01-19T15:40:14.419Z,80.11
2023-01-19T15:42:52.011Z,79.55
2023-01-19T15:45:40.811Z,79.20
2023-01-19T15:48:15.127Z,79.43
2023-01-19T15:51:02.089Z,79.38
2023-01-19T15:53:40.359Z,79.83
2023-01-19T15:56:18.405Z,79.79
2023-01-19T15:58:58.439Z,79.95
2023-01-19T16:01:38.066Z,80.20
2023-01-19T16:04:18.027Z,80.42
2023-01-19T16:07:06.171Z,79.98
2023-01-19T16:09:43.025Z,79.55
2023-01-19T16:12:17.941Z,79.64
2023-01-19T16:15:10.835Z,79.68
2023-01-19T16:17:47.905Z,80.22
2023-01-19T16:20:30.268Z,80.06
2023-01-19T16:23:17.324Z,79.92
2023-01-19T16:26:03.697Z,80.05
2023-01-19T16:28:38.324Z,80.21
2023-01-19T16:31:17.297Z,80.13
2023-01-19T16:33:51.994Z,80.10
2023-01-19T16:36:34.730Z,80.46
2023-01-19T16:39:13.500Z,80.55
2023-01-19T16:41:49.747Z,80.52
2023-01-19T16:44:21.923Z,80.45
2023-01-19T16:46:55.910Z,80.57
2023-01-19T16:49:36.235Z,80.52
2023-01-19T16:52:16.715Z,80.83
2023-01-19T16:54:49.644Z,80.81
2023-01-19T16:57:21.936Z,80.92
2023-01-19T17:00:11.679Z,80.97
2023-01-19T17:02:58.431Z,81.16
2023-01-19T17:05:31.413Z,80.82
2023-01-19T17:08:14.613Z,80.87
2023-01-19T17:10:52.117Z,80.77
2023-01-19T17:13:39.660Z,80.86
2023-01-19T17:16:23.377Z,80.47
2023-01-19T17:19:10.105Z,80.66
2023-01-19T17:21:52.003Z,80.98
2023-01-19T17:24:25.216Z,81.03
2023-01-19T17:27:01.393Z,80.82
2023-01-19T17:29:43.430Z,81.04
2023-01-19T17:32:24.994Z,81.25
2023-01-19T17:35:04.613Z,81.07
2023-01-19T17:37:49.671Z,80.90
2023-01-19T17:40:33.815Z,80.83
2023-01-19T17:43:18.963Z,80.53
2023-01-19T17:45:50.068Z,80.82
2023-01-19T17:48:38.500Z,80.90
2023-01-19T17:51:15.439Z,81.01
2023-01-19T17:53:53.748Z,80.78
2023-01-19T17:56:33.250Z,81.00
2023-01-19T17:59:17.090Z,81.28
2023-01-19T18:02:09.038Z,81.24
2023-01-19T18:05:27.675Z,80.79
2023-01-19T18:08:09.690Z,80.77
2023-01-19T18:11:08.231Z,80.53
2023-01-19T18:13:54.285Z,81.00
2023-01-19T18:16:37.832Z,80.91
2023-01-19T18:19:23.563Z,81.22
2023-01-19T18:22:06.523Z,80.86
2023-01-19T18:25:11.228Z,81.11
2023-01-19T18:28:04.348Z,81.01
2023-01-19T18:31:16.601Z,81.04
2023-01-19T18:33:56.473Z,81.08
2023-01-19T18:36:47.681Z,81.26
2023-01-19T18:39:34.018Z,81.54
2023-01-19T18:42:15.907Z,81.56
2023-01-19T18:44:57.767Z,81.76
2023-01-19T18:47:56.299Z,81.98
2023-01-19T18:50:34.515Z,81.92
2023-01-19T18:53:18.024Z,81.55
2023-01-19T18:56:17.611Z,81.85
2023-01-19T18:58:57.423Z,81.69
2023-01-19T19:01:43.893Z,81.49
2023-01-19T19:04:42.754Z,81.89
2023-01-19T19:07:30.903Z,81.71
2023-01-19T19:10:27.810Z,81.33
2023-01-19T19:13:08.289Z,81.42
2023-01-19T19:15:45.727Z,81.58
2023-01-19T19:18:25.007Z,81.91
2023-01-19T19:21:16.794Z,82.44
2023-01-19T19:24:14.479Z,81.85
2023-01-19T19:27:12.045Z,81.78
2023-01-19T19:29:50.052Z,81.60
2023-01-19T19:32:48.891Z,81.54
2023-01-19T19:35:43.939Z,81.47
2023-01-19T19:38:39.502Z,81.05
2023-01-19T19:41:14.451Z,81.13
2023-01-19T19:43:58.070Z,81.10
2023-01-19T19:46:44.001Z,81.06
2023-01-19T19:49:42.208Z,81.11
2023-01-19T19:55:31.337Z,80.96
2023-01-19T19:58:12.406Z,80.63
2023-01-19T20:00:50.404Z,80.56
2023-01-19T20:03:49.904Z,80.44
2023-01-19T20:07:06.867Z,80.55
2023-01-19T20:09:54.563Z,80.25
2023-01-19T20:12:27.843Z,80.05
2023-01-19T20:15:01.042Z,80.48
2023-01-19T20:17:36.222Z,81.05
2023-01-19T20:20:16.265Z,81.18
2023-01-19T20:22:57.773Z,81.31
2023-01-19T20:25:36.872Z,81.30
2023-01-19T20:28:15.564Z,81.18
2023-01-19T20:30:49.848Z,81.25
2023-01-19T20:33:28.306Z,80.90
2023-01-19T20:36:05.152Z,80.79
2023-01-19T20:38:37.918Z,80.88
2023-01-19T20:41:15.445Z,80.96
2023-01-19T20:43:49.755Z,81.23
2023-01-19T20:46:26.909Z,81.32
2023-01-19T20:49:00.149Z,81.16
2023-01-19T20:51:32.995Z,80.74
2023-01-19T20:54:06.663Z,80.91
2023-01-19T20:56:43.945Z,80.77
2023-01-19T20:59:20.819Z,80.97
2023-01-19T21:01:55.100Z,81.28
2023-01-19T21:04:34.411Z,81.40
2023-01-19T21:07:11.381Z,81.01
2023-01-19T21:09:46.794Z,81.23
2023-01-19T21:12:25.994Z,81.47
2023-01-19T21:15:01.796Z,81.36
2023-01-19T21:17:50.683Z,81.25
2023-01-19T21:20:52.660Z,81.44
2023-01-19T21:23:28.321Z,81.08
2023-01-19T21:26:08.631Z,80.80
2023-01-19T21:28:52.411Z,80.65
2023-01-19T21:31:45.619Z,80.73
2023-01-19T21:34:24.195Z,80.89
2023-01-19T21:37:08.664Z,80.91
2023-01-19T21:39:42.612Z,81.08
2023-01-19T21:42:18.281Z,81.34
2023-01-19T21:44:50.411Z,81.02
2023-01-19T21:47:24.328Z,81.12
2023-01-19T21:50:04.960Z,80.89
2023-01-19T21:52:36.951Z,81.14
2023-01-19T21:55:14.379Z,81.26
2023-01-19T21:57:59.413Z,81.07
2023-01-19T22:00:32.259Z,81.15
2023-01-19T22:03:06.170Z,81.29
2023-01-19T22:05:44.506Z,80.96
2023-01-19T22:08:18.476Z,80.94
2023-01-19T22:11:04.947Z,80.98
2023-01-19T22:13:38.856Z,80.95
2023-01-19T22:16:14.183Z,81.22
2023-01-19T22:18:51.679Z,81.47
2023-01-19T22:21:27.155Z,81.74
2023-01-19T22:24:07.266Z,81.81
2023-01-19T22:26:39.566Z,81.58
2023-01-19T22:29:13.884Z,81.65
2023-01-19T22:31:49.230Z,81.66
2023-01-19T22:34:33.625Z,81.22
2023-01-19T22:37:13.621Z,80.97
2023-01-19T22:39:47.415Z,81.39
2023-01-19T22:42:21.449Z,81.61
2023-01-19T22:44:53.251Z,81.72
2023-01-19T22:47:36.400Z,81.66
2023-01-19T22:50:10.650Z,82.00
2023-01-19T22:52:45.610Z,82.02
2023-01-19T22:55:22.195Z,81.77
2023-01-19T22:57:54.314Z,81.46
2023-01-19T23:00:37.733Z,81.60
2023-01-19T23:03:11.986Z,81.21
2023-01-19T23:05:48.119Z,81.29
2023-01-19T23:08:21.566Z,81.32
2023-01-19T23:10:59.725Z,81.47
2023-01-19T23:13:35.042Z,81.75
2023-01-19T23:16:12.376Z,81.60
2023-01-19T23:18:45.203Z,81.68
2023-01-19T23:21:20.967Z,81.84
2023-01-19T23:24:07.243Z,82.15
2023-01-19T23:26:43.684Z,82.13
2023-01-19T23:29:18.412Z,82.12
2023-01-19T23:31:57.943Z,82.40
2023-01-19T23:34:31.653Z,82.60
2023-01-19T23:37:14.423Z,82.63
2023-01-19T23:39:49.672Z,82.55
2023-01-19T23:42:30.613Z,82.54
2023-01-19T23:45:04.602Z,82.55
2023-01-19T23:47:44.492Z,82.37
2023-01-19T23:50:24.025Z,81.92
2023-01-19T23:53:02.388Z,81.81
2023-01-19T23:55:36.799Z,82.12
2023-01-19T23:58:11.423Z,81.74
